Anvik, Alaska
Current Conditions -  °F | °C
As of 4:56 PM on Friday 31 Oct 2014 (Local Time) from PANV Reporting Station
Overcast Overcast  
Wind Chill:   Ceiling: 4000
Heat Index: 19°   Visibility: 5mi
Dew Point: 10°   Wind: 16mph
Humidity: 68%   Direction: 50°NE
Pressure: 29.14"   Gusts: 29mph
Location:  62.66°N, 160.21°W
Report Text: PANV 010056Z AUTO 05014G25KT 5SM SCT019 OVC040 M07/M12 A2914 RMK AO1
Loading
Personal Weather Stations






























Interactive Weather Map
Tropical Storm Tracking
New forecast layout! Learn more

10-Day Weather Forecast

Advertisements
Track Severe Weather on mobile